Time;durP1;ratioP1;P1;durP2;ratioP2;P2;SDS_P1;SDS_P2;PMS_P1;PMS_P2;Temp;Humidity;BMP_temperature;BMP_pressure;BME280_temperature;BME280_humidity;BME280_pressure;Samples;Min_cycle;Max_cycle;Signal;HPM_P1;HPM_P2
2023/10/23 00:01:43;;;;;;;1999.90;999.90;;;12.60;99.90;;;;;;5069782;28;20419;-73
2023/10/23 00:04:10;;;;;;;1999.90;999.90;;;12.20;99.90;;;;;;5069600;28;20423;-72
2023/10/23 00:06:38;;;;;;;1999.90;999.90;;;12.30;99.90;;;;;;5068639;28;20432;-73
2023/10/23 00:09:05;;;;;;;1999.90;999.90;;;12.20;99.90;;;;;;5068869;28;20412;-73
2023/10/23 00:11:32;;;;;;;1999.90;999.90;;;12.00;99.90;;;;;;5069886;28;20419;-73
2023/10/23 00:13:59;;;;;;;1999.90;999.90;;;12.00;99.90;;;;;;5069643;28;20408;-73
2023/10/23 00:16:26;;;;;;;1999.90;999.90;;;11.90;99.90;;;;;;5071620;28;20464;-73
2023/10/23 00:18:53;;;;;;;1999.90;999.90;;;11.80;99.90;;;;;;5071991;28;20459;-73
2023/10/23 00:21:20;;;;;;;1999.90;999.90;;;11.90;99.90;;;;;;5072981;28;20411;-73
2023/10/23 00:23:49;;;;;;;1999.90;999.90;;;11.80;99.90;;;;;;5073001;28;21031;-71
2023/10/23 00:26:17;;;;;;;1999.90;999.90;;;11.80;99.90;;;;;;5072906;28;20462;-74
2023/10/23 00:28:44;;;;;;;1999.90;999.90;;;11.70;99.90;;;;;;5072909;28;20552;-74
2023/10/23 00:31:11;;;;;;;1999.90;999.90;;;11.60;99.90;;;;;;5071860;28;20427;-74
2023/10/23 00:33:38;;;;;;;1999.90;999.90;;;11.50;99.90;;;;;;5072791;28;20417;-74
2023/10/23 00:36:05;;;;;;;1999.90;999.90;;;11.40;99.90;;;;;;5072653;28;20408;-73
2023/10/23 00:38:32;;;;;;;1999.90;999.90;;;11.40;99.90;;;;;;5072863;28;20418;-74
2023/10/23 00:41:00;;;;;;;1999.90;999.90;;;11.30;99.90;;;;;;5072126;28;20797;-74
2023/10/23 00:43:26;;;;;;;1999.90;999.90;;;11.20;99.90;;;;;;5072621;28;20921;-73
2023/10/23 00:45:56;;;;;;;1999.90;999.90;;;11.20;99.90;;;;;;5072424;28;20435;-73
2023/10/23 00:48:24;;;;;;;1999.90;999.90;;;11.20;99.90;;;;;;5072518;28;20913;-73
2023/10/23 00:50:56;;;;;;;1999.90;999.90;;;11.20;99.90;;;;;;5072748;28;20422;-73
2023/10/23 00:53:25;;;;;;;1999.90;999.90;;;11.10;99.90;;;;;;5071651;28;21036;-73
2023/10/23 00:55:53;;;;;;;1999.90;999.90;;;11.10;99.90;;;;;;5072195;28;20892;-73
2023/10/23 00:58:25;;;;;;;1999.90;999.90;;;11.00;99.90;;;;;;5072437;28;20911;-72
2023/10/23 01:00:53;;;;;;;1999.90;999.90;;;11.00;99.90;;;;;;5072521;28;20411;-74
2023/10/23 01:03:19;;;;;;;1999.90;999.90;;;11.10;99.90;;;;;;5072668;28;20415;-74
2023/10/23 01:05:46;;;;;;;1999.90;999.90;;;11.10;99.90;;;;;;5071309;28;20434;-73
2023/10/23 01:08:13;;;;;;;1999.90;999.90;;;11.20;99.90;;;;;;5064034;28;20894;-73
2023/10/23 01:10:40;;;;;;;1999.90;999.90;;;11.10;99.90;;;;;;5071847;28;20889;-73
2023/10/23 01:13:07;;;;;;;1999.90;999.90;;;11.00;99.90;;;;;;5064098;28;20416;-74
2023/10/23 01:15:36;;;;;;;1999.90;999.90;;;11.10;99.90;;;;;;5072422;28;20416;-74
2023/10/23 01:18:04;;;;;;;1999.90;999.90;;;11.10;99.90;;;;;;5070995;28;20798;-73
2023/10/23 01:20:32;;;;;;;1999.90;999.90;;;11.00;99.90;;;;;;5071969;28;20883;-71
2023/10/23 01:23:00;;;;;;;1999.90;999.90;;;11.00;99.90;;;;;;5072012;28;20412;-73
2023/10/23 01:25:28;;;;;;;1999.90;999.90;;;10.90;99.90;;;;;;5070721;28;21108;-73
2023/10/23 01:27:55;;;;;;;1999.90;999.90;;;10.80;99.90;;;;;;5070773;28;20411;-72
2023/10/23 01:30:22;;;;;;;1999.90;999.90;;;10.80;99.90;;;;;;5071934;28;20415;-73
2023/10/23 01:32:49;;;;;;;1999.90;999.90;;;10.80;99.90;;;;;;5071954;28;20408;-73
2023/10/23 01:35:16;;;;;;;1999.90;999.90;;;10.80;99.90;;;;;;5071309;28;20412;-73
2023/10/23 01:37:44;;;;;;;1999.90;999.90;;;10.90;99.90;;;;;;5071231;28;20423;-73
2023/10/23 01:40:12;;;;;;;1999.90;999.90;;;10.80;99.90;;;;;;5071830;28;20483;-72
2023/10/23 01:42:40;;;;;;;1999.90;999.90;;;10.70;99.90;;;;;;5063330;28;20408;-74
2023/10/23 01:45:08;;;;;;;1999.90;999.90;;;10.60;99.90;;;;;;5071564;28;20435;-73
2023/10/23 01:47:35;;;;;;;1999.90;999.90;;;10.60;99.90;;;;;;5071070;28;20418;-73
2023/10/23 01:50:02;;;;;;;1999.90;999.90;;;10.60;99.90;;;;;;5071069;28;20968;-73
2023/10/23 01:52:28;;;;;;;1999.90;999.90;;;10.80;99.90;;;;;;5071347;28;20886;-74
2023/10/23 01:54:55;;;;;;;1999.90;999.90;;;11.30;99.90;;;;;;5071430;28;20414;-73
2023/10/23 01:57:22;;;;;;;1999.90;999.90;;;10.90;99.90;;;;;;5071359;28;20416;-73
2023/10/23 01:59:50;;;;;;;1999.90;999.90;;;11.00;99.90;;;;;;5070407;28;20482;-73
2023/10/23 02:02:17;;;;;;;1999.90;999.90;;;11.00;99.90;;;;;;5063533;28;20416;-73
2023/10/23 02:04:43;;;;;;;1999.90;999.90;;;11.10;99.90;;;;;;5071012;28;20432;-73
2023/10/23 02:07:10;;;;;;;1999.90;999.90;;;11.20;99.90;;;;;;5070889;28;20427;-74
2023/10/23 02:09:37;;;;;;;1999.90;999.90;;;11.30;99.90;;;;;;5071033;28;20408;-73
2023/10/23 02:12:04;;;;;;;1999.90;999.90;;;11.30;99.90;;;;;;5070244;28;20412;-73
2023/10/23 02:14:31;;;;;;;1999.90;999.90;;;11.40;99.90;;;;;;5069259;28;20458;-73
2023/10/23 02:16:59;;;;;;;1999.90;999.90;;;11.40;99.90;;;;;;5068614;28;20414;-73
2023/10/23 02:19:26;;;;;;;1999.90;999.90;;;11.40;99.90;;;;;;5070894;28;20422;-74
2023/10/23 02:21:53;;;;;;;1999.90;999.90;;;11.40;99.90;;;;;;5070779;28;20412;-73
2023/10/23 02:24:20;;;;;;;1999.90;999.90;;;11.50;99.90;;;;;;5069924;28;20429;-72
2023/10/23 02:26:47;;;;;;;1999.90;999.90;;;11.50;99.90;;;;;;5070802;28;20469;-73
2023/10/23 02:29:13;;;;;;;1999.90;999.90;;;11.60;99.90;;;;;;5069906;28;20418;-72
2023/10/23 02:31:40;;;;;;;1999.90;999.90;;;11.60;99.90;;;;;;5070736;28;20505;-74
2023/10/23 02:34:08;;;;;;;1999.90;999.90;;;11.60;99.90;;;;;;5070941;28;20419;-74
2023/10/23 02:36:35;;;;;;;1999.90;999.90;;;11.70;99.90;;;;;;5069672;28;20423;-73
2023/10/23 02:39:02;;;;;;;1999.90;999.90;;;11.70;99.90;;;;;;5070214;28;20407;-73
2023/10/23 02:41:29;;;;;;;1999.90;999.90;;;11.80;99.90;;;;;;5070592;28;20398;-73
2023/10/23 02:43:56;;;;;;;1999.90;999.90;;;11.80;99.90;;;;;;5069559;28;20423;-73
2023/10/23 02:46:23;;;;;;;1999.90;999.90;;;11.80;99.90;;;;;;5070317;28;20435;-73
2023/10/23 02:48:50;;;;;;;1999.90;999.90;;;11.90;99.90;;;;;;5069499;28;20431;-72
2023/10/23 02:51:18;;;;;;;1999.90;999.90;;;11.90;99.90;;;;;;5070157;28;20416;-71
2023/10/23 02:53:45;;;;;;;1999.90;999.90;;;11.90;99.90;;;;;;5069817;28;20429;-72
2023/10/23 02:56:12;;;;;;;1999.90;999.90;;;11.90;99.90;;;;;;5069412;28;20430;-73
2023/10/23 02:58:39;;;;;;;1999.90;999.90;;;12.00;99.90;;;;;;5070041;28;20913;-73
2023/10/23 03:01:15;;;;;;;1999.90;999.90;;;12.10;99.90;;;;;;5069403;28;20435;-71
2023/10/23 03:03:41;;;;;;;1999.90;999.90;;;12.10;99.90;;;;;;5069905;28;20432;-72
2023/10/23 03:06:08;;;;;;;1999.90;999.90;;;12.40;99.90;;;;;;5069916;28;20423;-74
2023/10/23 03:08:37;;;;;;;1999.90;999.90;;;12.20;99.90;;;;;;5061705;28;20418;-73
2023/10/23 03:11:03;;;;;;;1999.90;999.90;;;12.50;99.90;;;;;;5070097;28;20838;-73
2023/10/23 03:13:30;;;;;;;1999.90;999.90;;;12.20;99.90;;;;;;5069555;28;20431;-73
2023/10/23 03:15:57;;;;;;;1999.90;999.90;;;12.20;99.90;;;;;;5070009;28;20767;-74
2023/10/23 03:18:23;;;;;;;1999.90;999.90;;;12.60;99.90;;;;;;5070220;28;20418;-73
2023/10/23 03:20:50;;;;;;;1999.90;999.90;;;12.40;99.90;;;;;;5069968;28;20419;-73
2023/10/23 03:23:17;;;;;;;1999.90;999.90;;;12.60;99.90;;;;;;5061780;28;20416;-72
2023/10/23 03:25:45;;;;;;;1999.90;999.90;;;12.40;99.90;;;;;;5069008;28;20419;-73
2023/10/23 03:28:12;;;;;;;1999.90;999.90;;;12.30;99.90;;;;;;5069893;28;20474;-73
2023/10/23 03:30:39;;;;;;;1999.90;999.90;;;12.40;99.90;;;;;;5069959;28;20482;-73
2023/10/23 03:33:05;;;;;;;1999.90;999.90;;;12.30;99.90;;;;;;5070064;28;20407;-73
2023/10/23 03:35:34;;;;;;;1999.90;999.90;;;12.20;99.90;;;;;;5069759;28;20446;-73
2023/10/23 03:38:01;;;;;;;1999.90;999.90;;;12.10;99.90;;;;;;5069028;28;20431;-73
2023/10/23 03:40:28;;;;;;;1999.90;999.90;;;12.20;99.90;;;;;;5070008;28;20809;-74
2023/10/23 03:42:56;;;;;;;1999.90;999.90;;;12.20;99.90;;;;;;5069763;28;20407;-74
2023/10/23 03:45:23;;;;;;;1999.90;999.90;;;12.20;99.90;;;;;;5069741;28;20431;-73
2023/10/23 03:47:49;;;;;;;1999.90;999.90;;;12.20;99.90;;;;;;5069620;28;20912;-73
2023/10/23 03:50:16;;;;;;;1999.90;999.90;;;12.10;99.90;;;;;;5069404;28;20415;-74
2023/10/23 03:52:43;;;;;;;1999.90;999.90;;;12.10;99.90;;;;;;5074092;28;20408;-73
2023/10/23 03:55:10;;;;;;;1999.90;999.90;;;12.10;99.90;;;;;;5073715;28;20415;-73
2023/10/23 03:57:37;;;;;;;1999.90;999.90;;;12.10;99.90;;;;;;5073667;28;20415;-73
2023/10/23 04:00:06;;;;;;;1999.90;999.90;;;12.10;99.90;;;;;;5072505;28;20419;-73
2023/10/23 04:02:33;;;;;;;1999.90;999.90;;;12.00;99.90;;;;;;5069253;28;20424;-73
2023/10/23 04:05:00;;;;;;;1999.90;999.90;;;12.00;99.90;;;;;;5073122;28;20795;-73
2023/10/23 04:07:27;;;;;;;1999.90;999.90;;;12.10;99.90;;;;;;5073538;28;20411;-72
2023/10/23 04:09:53;;;;;;;1999.90;999.90;;;12.10;99.90;;;;;;5073217;28;20411;-74
2023/10/23 04:12:20;;;;;;;1999.90;999.90;;;12.10;99.90;;;;;;5072686;28;20418;-73
2023/10/23 04:14:47;;;;;;;1999.90;999.90;;;12.30;99.90;;;;;;5073191;28;20438;-73
2023/10/23 04:17:15;;;;;;;1999.90;999.90;;;12.00;99.90;;;;;;5071235;28;20407;-73
2023/10/23 04:19:41;;;;;;;1999.90;999.90;;;12.00;99.90;;;;;;5073324;28;20418;-73
2023/10/23 04:22:08;;;;;;;1999.90;999.90;;;12.00;99.90;;;;;;5073050;28;20833;-73
2023/10/23 04:24:35;;;;;;;1999.90;999.90;;;11.90;99.90;;;;;;5072703;28;20431;-73
2023/10/23 04:27:01;;;;;;;1999.90;999.90;;;11.90;99.90;;;;;;5073123;28;20787;-73
2023/10/23 04:29:28;;;;;;;1999.90;999.90;;;11.90;99.90;;;;;;5072950;28;20415;-72
2023/10/23 04:31:55;;;;;;;1999.90;999.90;;;11.90;99.90;;;;;;5073028;28;20459;-73
2023/10/23 04:34:23;;;;;;;1999.90;999.90;;;11.80;99.90;;;;;;5073190;28;20420;-73
2023/10/23 04:36:50;;;;;;;1999.90;999.90;;;11.90;99.90;;;;;;5072807;28;20431;-72
2023/10/23 04:39:16;;;;;;;1999.90;999.90;;;11.90;99.90;;;;;;5073643;28;20412;-73
2023/10/23 04:41:43;;;;;;;1999.90;999.90;;;11.90;99.90;;;;;;5074832;28;20419;-73
2023/10/23 04:44:10;;;;;;;1999.90;999.90;;;12.00;99.90;;;;;;5073345;28;20439;-72
2023/10/23 04:46:36;;;;;;;1999.90;999.90;;;11.90;99.90;;;;;;5073698;28;20423;-72
2023/10/23 04:49:03;;;;;;;1999.90;999.90;;;11.90;99.90;;;;;;5070111;28;20435;-73
2023/10/23 04:51:33;;;;;;;1999.90;999.90;;;11.90;99.90;;;;;;5073166;28;20431;-71
2023/10/23 04:54:00;;;;;;;1999.90;999.90;;;12.40;99.90;;;;;;5064749;28;20401;-74
2023/10/23 04:56:26;;;;;;;1999.90;999.90;;;12.00;99.90;;;;;;5073158;28;20427;-73
2023/10/23 04:58:53;;;;;;;1999.90;999.90;;;12.30;99.90;;;;;;5072497;28;20444;-73
2023/10/23 05:01:20;;;;;;;1999.90;999.90;;;12.30;99.90;;;;;;5071078;28;20432;-72
2023/10/23 05:03:47;;;;;;;1999.90;999.90;;;12.10;99.90;;;;;;5072527;28;20920;-73
2023/10/23 05:06:14;;;;;;;1999.90;999.90;;;12.10;99.90;;;;;;5064239;28;20423;-74
2023/10/23 05:08:42;;;;;;;1999.90;999.90;;;12.10;99.90;;;;;;5071939;28;20415;-73
2023/10/23 05:11:10;;;;;;;1999.90;999.90;;;12.10;99.90;;;;;;5072394;28;20420;-73
2023/10/23 05:13:36;;;;;;;1999.90;999.90;;;12.00;99.90;;;;;;5071431;28;20481;-73
2023/10/23 05:16:04;;;;;;;1999.90;999.90;;;12.00;99.90;;;;;;5071997;28;20411;-72
2023/10/23 05:18:31;;;;;;;1999.90;999.90;;;12.10;99.90;;;;;;5072071;28;20424;-73
2023/10/23 05:20:58;;;;;;;1999.90;999.90;;;12.00;99.90;;;;;;5071783;28;20423;-72
2023/10/23 05:23:24;;;;;;;1999.90;999.90;;;11.90;99.90;;;;;;5071863;28;20786;-72
2023/10/23 05:25:52;;;;;;;1999.90;999.90;;;12.00;99.90;;;;;;5070900;28;20428;-73
2023/10/23 05:28:19;;;;;;;1999.90;999.90;;;12.10;99.90;;;;;;5071592;28;20794;-73
2023/10/23 05:30:46;;;;;;;1999.90;999.90;;;12.50;99.90;;;;;;5071661;28;20408;-73
2023/10/23 05:33:12;;;;;;;1999.90;999.90;;;12.10;99.90;;;;;;5071711;28;20431;-73
2023/10/23 05:35:39;;;;;;;1999.90;999.90;;;12.00;99.90;;;;;;5071465;28;20408;-73
2023/10/23 05:38:06;;;;;;;1999.90;999.90;;;11.90;99.90;;;;;;5070572;28;20960;-73
2023/10/23 05:40:32;;;;;;;1999.90;999.90;;;11.80;99.90;;;;;;5071618;28;20414;-73
2023/10/23 05:43:00;;;;;;;1999.90;999.90;;;11.80;99.90;;;;;;5071344;28;20931;-73
2023/10/23 05:45:27;;;;;;;1999.90;999.90;;;11.70;99.90;;;;;;5071250;28;20423;-73
2023/10/23 05:47:54;;;;;;;1999.90;999.90;;;11.70;99.90;;;;;;5070540;28;20510;-73
2023/10/23 05:50:21;;;;;;;1999.90;999.90;;;11.70;99.90;;;;;;5074258;28;20793;-72
2023/10/23 05:52:47;;;;;;;1999.90;999.90;;;11.70;99.90;;;;;;5080678;28;20414;-73
2023/10/23 05:55:14;;;;;;;1999.90;999.90;;;11.80;99.90;;;;;;5081177;28;20420;-73
2023/10/23 05:57:41;;;;;;;1999.90;999.90;;;11.70;99.90;;;;;;5077854;28;20420;-73
2023/10/23 06:00:10;;;;;;;1999.90;999.90;;;11.80;99.90;;;;;;5072606;28;20443;-74
2023/10/23 06:02:37;;;;;;;1999.90;999.90;;;11.60;99.90;;;;;;5071026;28;20422;-73
2023/10/23 06:05:04;;;;;;;1999.90;999.90;;;11.50;99.90;;;;;;5070907;28;20412;-73
2023/10/23 06:07:30;;;;;;;1999.90;999.90;;;11.40;99.90;;;;;;5070900;28;20431;-73
2023/10/23 06:09:59;;;;;;;1999.90;999.90;;;11.50;99.90;;;;;;5072706;28;20422;-72
2023/10/23 06:12:25;;;;;;;1999.90;999.90;;;11.20;99.90;;;;;;5070496;28;20431;-73
2023/10/23 06:14:52;;;;;;;1999.90;999.90;;;11.20;99.90;;;;;;5070459;28;20411;-71
2023/10/23 06:17:20;;;;;;;1999.90;999.90;;;11.20;99.90;;;;;;5063057;28;20404;-73
2023/10/23 06:19:47;;;;;;;1999.90;999.90;;;11.10;99.90;;;;;;5063035;28;20502;-73
2023/10/23 06:22:14;;;;;;;1999.90;999.90;;;11.30;99.90;;;;;;5063054;28;20414;-73
2023/10/23 06:24:40;;;;;;;1999.90;999.90;;;11.20;99.90;;;;;;5070220;28;20447;-73
2023/10/23 06:27:07;;;;;;;1999.90;999.90;;;11.00;99.90;;;;;;5071064;28;20427;-71
2023/10/23 06:29:34;;;;;;;1999.90;999.90;;;10.70;99.90;;;;;;5070927;28;20415;-73
2023/10/23 06:32:00;;;;;;;1999.90;999.90;;;10.60;99.90;;;;;;5070877;28;20416;-71
2023/10/23 06:34:28;;;;;;;1999.90;999.90;;;10.50;99.90;;;;;;5071138;28;20418;-74
2023/10/23 06:36:56;;;;;;;1999.90;999.90;;;10.60;99.90;;;;;;5069742;28;20797;-72
2023/10/23 06:39:23;;;;;;;1999.90;999.90;;;10.40;99.90;;;;;;5070278;28;20491;-71
2023/10/23 06:41:50;;;;;;;1999.90;999.90;;;10.40;99.90;;;;;;5070784;28;20412;-71
2023/10/23 06:44:17;;;;;;;1999.90;999.90;;;10.30;99.90;;;;;;5070500;28;21164;-71
2023/10/23 06:46:44;;;;;;;1999.90;999.90;;;10.50;99.90;;;;;;5068492;28;20459;-71
2023/10/23 06:49:11;;;;;;;1999.90;999.90;;;10.30;99.90;;;;;;5070229;28;20408;-72
2023/10/23 06:51:39;;;;;;;1999.90;999.90;;;10.40;99.90;;;;;;5070529;28;20441;-72
2023/10/23 06:54:06;;;;;;;1999.90;999.90;;;10.40;99.90;;;;;;5070493;28;20407;-71
2023/10/23 06:56:33;;;;;;;1999.90;999.90;;;10.40;99.90;;;;;;5069576;28;20431;-70
2023/10/23 06:58:59;;;;;;;1999.90;999.90;;;10.50;99.90;;;;;;5070228;28;20420;-72
2023/10/23 07:01:26;;;;;;;1999.90;999.90;;;10.50;99.90;;;;;;5070574;28;20419;-74
2023/10/23 07:03:53;;;;;;;1999.90;999.90;;;10.50;99.90;;;;;;5070427;28;21007;-70
2023/10/23 07:06:19;;;;;;;1999.90;999.90;;;10.60;99.90;;;;;;5070466;28;20439;-73
2023/10/23 07:08:47;;;;;;;1999.90;999.90;;;10.60;99.90;;;;;;5068808;28;20446;-71
2023/10/23 07:11:16;;;;;;;1999.90;999.90;;;10.50;99.90;;;;;;5065331;28;20435;-71
2023/10/23 07:13:42;;;;;;;1999.90;999.90;;;10.80;99.90;;;;;;5068910;28;20462;-72
2023/10/23 07:16:09;;;;;;;1999.90;999.90;;;10.70;99.90;;;;;;5068783;28;20439;-72
2023/10/23 07:18:36;;;;;;;1999.90;999.90;;;10.80;99.90;;;;;;5069879;28;20420;-71
2023/10/23 07:21:03;;;;;;;1999.90;999.90;;;10.90;99.90;;;;;;5067696;28;20466;-72
2023/10/23 07:23:30;;;;;;;1999.90;999.90;;;11.20;99.90;;;;;;5069956;28;20415;-72
2023/10/23 07:26:03;;;;;;;1999.90;999.90;;;11.40;99.90;;;;;;5071636;28;20411;-72
2023/10/23 07:28:30;;;;;;;1999.90;999.90;;;11.60;99.90;;;;;;5074228;28;20404;-72
2023/10/23 07:30:56;;;;;;;1999.90;999.90;;;11.60;99.90;;;;;;5074170;28;20415;-72
2023/10/23 07:33:23;;;;;;;1999.90;999.90;;;11.80;99.90;;;;;;5072517;28;20453;-72
2023/10/23 07:36:00;;;;;;;1999.90;999.90;;;12.10;99.90;;;;;;5072474;28;20438;-70
2023/10/23 07:38:27;;;;;;;1999.90;999.90;;;12.40;99.90;;;;;;5073994;28;20407;-71
2023/10/23 07:40:53;;;;;;;1999.90;999.90;;;12.60;99.90;;;;;;5072685;28;20435;-71
2023/10/23 07:43:22;;;;;;;1999.90;999.90;;;12.90;99.90;;;;;;5073813;28;20782;-72
2023/10/23 07:45:48;;;;;;;1999.90;999.90;;;12.90;99.90;;;;;;5073807;28;20415;-71
2023/10/23 07:48:15;;;;;;;1999.90;999.90;;;13.10;99.90;;;;;;5073764;28;20426;-71
2023/10/23 07:50:42;;;;;;;1999.90;999.90;;;13.50;99.90;;;;;;5064428;28;20438;-71
2023/10/23 07:53:08;;;;;;;1999.90;999.90;;;13.90;99.90;;;;;;5073157;28;20427;-72
2023/10/23 07:55:36;;;;;;;1999.90;999.90;;;14.30;99.90;;;;;;5073763;28;20411;-71
2023/10/23 07:58:03;;;;;;;1999.90;999.90;;;14.70;99.90;;;;;;5073478;28;20840;-72
2023/10/23 08:00:31;;;;;;;1999.90;999.90;;;15.00;99.90;;;;;;5072824;28;20435;-71
2023/10/23 08:02:59;;;;;;;1999.90;999.90;;;15.20;99.90;;;;;;5073647;28;20427;-73
2023/10/23 08:05:26;;;;;;;1999.90;999.90;;;15.40;99.90;;;;;;5074677;28;20446;-71
2023/10/23 08:07:53;;;;;;;1999.90;999.90;;;15.30;99.90;;;;;;5073039;28;20833;-71
2023/10/23 08:10:19;;;;;;;1999.90;999.90;;;15.70;99.90;;;;;;5073699;28;20416;-72
2023/10/23 08:12:47;;;;;;;1999.90;999.90;;;15.70;99.90;;;;;;5072614;28;20439;-72
2023/10/23 08:15:14;;;;;;;1999.90;999.90;;;15.60;99.90;;;;;;5073383;28;20411;-71
2023/10/23 08:17:42;;;;;;;1999.90;999.90;;;15.80;99.90;;;;;;5073333;28;20420;-72
2023/10/23 08:20:09;;;;;;;1999.90;999.90;;;15.80;99.90;;;;;;5073091;28;20419;-71
2023/10/23 08:22:36;;;;;;;1999.90;999.90;;;15.80;99.90;;;;;;5073207;28;20411;-73
2023/10/23 08:25:04;;;;;;;1999.90;999.90;;;15.90;99.90;;;;;;5072183;28;20434;-72
2023/10/23 08:27:31;;;;;;;1999.90;999.90;;;15.60;99.90;;;;;;5072604;28;20503;-72
2023/10/23 08:29:58;;;;;;;1999.90;999.90;;;15.20;99.90;;;;;;5072837;28;20964;-70
2023/10/23 08:32:25;;;;;;;1999.90;999.90;;;15.00;99.90;;;;;;5073067;28;20494;-72
2023/10/23 08:34:54;;;;;;;1999.90;999.90;;;14.80;99.90;;;;;;5073005;28;20787;-71
2023/10/23 08:37:21;;;;;;;1999.90;999.90;;;14.90;99.90;;;;;;5071745;28;20431;-72
2023/10/23 08:39:48;;;;;;;1999.90;999.90;;;14.80;99.90;;;;;;5072626;28;20492;-71
2023/10/23 08:42:15;;;;;;;1999.90;999.90;;;14.80;99.90;;;;;;5064874;28;20481;-71
2023/10/23 08:44:43;;;;;;;1999.90;999.90;;;15.00;99.90;;;;;;5072618;28;20905;-71
2023/10/23 08:47:10;;;;;;;1999.90;999.90;;;15.00;99.90;;;;;;5072684;28;20442;-71
2023/10/23 08:49:37;;;;;;;1999.90;999.90;;;15.00;99.90;;;;;;5071700;28;20432;-72
2023/10/23 08:52:10;;;;;;;1999.90;999.90;;;14.70;99.90;;;;;;5072586;28;20416;-72
2023/10/23 08:54:37;;;;;;;1999.90;999.90;;;14.50;99.90;;;;;;5072654;28;20512;-72
2023/10/23 08:57:05;;;;;;;1999.90;999.90;;;14.40;99.90;;;;;;5072867;28;20434;-72
2023/10/23 08:59:32;;;;;;;1999.90;999.90;;;14.30;99.90;;;;;;5072670;28;20416;-70
2023/10/23 09:02:00;;;;;;;1999.90;999.90;;;14.30;99.90;;;;;;5071680;28;20459;-72
2023/10/23 09:04:27;;;;;;;1999.90;999.90;;;14.30;99.90;;;;;;5072467;28;20430;-71
2023/10/23 09:06:55;;;;;;;1999.90;999.90;;;14.40;99.90;;;;;;5072180;28;20805;-70
2023/10/23 09:09:26;;;;;;;1999.90;999.90;;;14.50;99.90;;;;;;5071904;28;20898;-72
2023/10/23 09:11:53;;;;;;;1999.90;999.90;;;14.50;99.90;;;;;;5072393;28;20419;-72
2023/10/23 09:14:24;;;;;;;1999.90;999.90;;;14.30;99.90;;;;;;5071549;28;20811;-71
2023/10/23 09:16:52;;;;;;;1999.90;999.90;;;14.30;99.90;;;;;;5072157;28;20408;-71
2023/10/23 09:19:27;;;;;;;1999.90;999.90;;;14.30;99.90;;;;;;5072057;28;20412;-72
2023/10/23 09:21:55;;;;;;;1999.90;999.90;;;14.10;99.90;;;;;;5072178;28;20499;-71
2023/10/23 09:24:23;;;;;;;1999.90;999.90;;;14.10;99.90;;;;;;5072083;28;20408;-69
2023/10/23 09:26:51;;;;;;;1999.90;999.90;;;14.10;99.90;;;;;;5070907;28;20434;-70
2023/10/23 09:29:21;;;;;;;1999.90;999.90;;;14.10;99.90;;;;;;5071798;28;20488;-72
2023/10/23 09:31:49;;;;;;;1999.90;999.90;;;14.10;99.90;;;;;;5072049;28;20407;-72
2023/10/23 09:34:17;;;;;;;1999.90;999.90;;;14.10;99.90;;;;;;5072090;28;20415;-71
2023/10/23 09:36:45;;;;;;;1999.90;999.90;;;14.10;99.90;;;;;;5071770;28;20411;-72
2023/10/23 09:39:11;;;;;;;1999.90;999.90;;;14.20;99.90;;;;;;5070569;28;20442;-72
2023/10/23 09:41:41;;;;;;;1999.90;999.90;;;14.30;99.90;;;;;;5071887;28;20415;-71
2023/10/23 09:44:08;;;;;;;1999.90;999.90;;;14.60;99.90;;;;;;5071675;28;20411;-72
2023/10/23 09:46:36;;;;;;;1999.90;999.90;;;14.70;99.90;;;;;;5071440;28;20809;-71
2023/10/23 09:49:03;;;;;;;1999.90;999.90;;;14.70;99.90;;;;;;5070731;28;20419;-72
2023/10/23 09:51:36;;;;;;;1999.90;999.90;;;14.70;99.90;;;;;;5070737;28;20450;-71
2023/10/23 09:54:11;;;;;;;1999.90;999.90;;;14.90;99.90;;;;;;5069881;28;20555;-72
2023/10/23 09:56:42;;;;;;;1999.90;999.90;;;14.90;99.90;;;;;;5071149;28;20411;-72
2023/10/23 09:59:09;;;;;;;1999.90;999.90;;;14.80;99.90;;;;;;5071124;28;20420;-72
2023/10/23 10:01:39;;;;;;;1999.90;999.90;;;14.80;99.90;;;;;;5070301;28;20438;-71
2023/10/23 10:04:12;;;;;;;1999.90;999.90;;;14.80;99.90;;;;;;5071326;28;20415;-72
2023/10/23 10:06:42;;;;;;;1999.90;999.90;;;15.00;99.90;;;;;;5071228;28;20487;-72
2023/10/23 10:09:13;;;;;;;1999.90;999.90;;;14.90;99.90;;;;;;5070691;28;20415;-71
2023/10/23 10:11:43;;;;;;;1999.90;999.90;;;15.00;99.90;;;;;;5071504;28;20415;-72
2023/10/23 10:14:11;;;;;;;1999.90;999.90;;;15.00;99.90;;;;;;5070359;28;20436;-72
2023/10/23 10:16:39;;;;;;;1999.90;999.90;;;15.20;99.90;;;;;;5070943;28;20411;-72
2023/10/23 10:19:07;;;;;;;1999.90;999.90;;;15.20;99.90;;;;;;5070767;28;20441;-72
2023/10/23 10:21:53;;;;;;;1999.90;999.90;;;15.20;99.90;;;;;;5070360;28;20443;-72
2023/10/23 10:24:21;;;;;;;1999.90;999.90;;;15.40;99.90;;;;;;5071033;28;20411;-70
2023/10/23 10:26:50;;;;;;;1999.90;999.90;;;15.50;99.90;;;;;;5069995;28;20497;-72
2023/10/23 10:29:17;;;;;;;1999.90;999.90;;;15.70;99.90;;;;;;5064003;28;20426;-71
2023/10/23 10:32:05;;;;;;;1999.90;999.90;;;15.70;99.90;;;;;;5071236;28;20785;-71
2023/10/23 10:34:33;;;;;;;1999.90;999.90;;;15.60;99.90;;;;;;5070694;28;20457;-72
2023/10/23 10:37:01;;;;;;;1999.90;999.90;;;15.50;99.90;;;;;;5069874;28;20485;-72
2023/10/23 10:40:11;;;;;;;1999.90;999.90;;;15.60;99.90;;;;;;5069721;28;20503;-72
2023/10/23 10:42:40;;;;;;;1999.90;999.90;;;15.60;99.90;;;;;;5065437;28;20786;-72
2023/10/23 10:45:14;;;;;;;1999.90;999.90;;;15.60;99.90;;;;;;5070451;28;20419;-71
2023/10/23 10:47:43;;;;;;;1999.90;999.90;;;15.60;99.90;;;;;;5070466;28;20427;-72
2023/10/23 10:50:10;;;;;;;1999.90;999.90;;;15.60;99.90;;;;;;5069370;28;20436;-71
2023/10/23 10:52:38;;;;;;;1999.90;999.90;;;15.50;99.90;;;;;;5070338;28;20954;-71
2023/10/23 10:55:06;;;;;;;1999.90;999.90;;;15.60;99.90;;;;;;5070428;28;20435;-69
2023/10/23 10:57:34;;;;;;;1999.90;999.90;;;15.80;99.90;;;;;;5070485;28;20414;-72
2023/10/23 11:00:03;;;;;;;1999.90;999.90;;;15.70;99.90;;;;;;5070411;28;20424;-73
2023/10/23 11:02:30;;;;;;;1999.90;999.90;;;15.90;99.90;;;;;;5068818;28;20836;-72
2023/10/23 11:04:56;;;;;;;1999.90;999.90;;;16.00;99.90;;;;;;5069941;28;20415;-72
2023/10/23 11:07:25;;;;;;;1999.90;999.90;;;16.20;99.90;;;;;;5070489;28;20439;-72
2023/10/23 11:09:53;;;;;;;1999.90;999.90;;;16.30;99.90;;;;;;5070119;28;20409;-71
2023/10/23 11:12:20;;;;;;;1999.90;999.90;;;16.30;99.90;;;;;;5062919;28;20528;-72
2023/10/23 11:14:47;;;;;;;1999.90;999.90;;;16.20;99.90;;;;;;5062976;28;20434;-72
2023/10/23 11:17:16;;;;;;;1999.90;999.90;;;16.10;99.90;;;;;;5062208;28;20442;-72
2023/10/23 11:19:44;;;;;;;1999.90;999.90;;;16.10;99.90;;;;;;5066860;28;20434;-71
2023/10/23 11:22:12;;;;;;;1999.90;999.90;;;16.00;99.90;;;;;;5066008;28;20435;-71
2023/10/23 11:24:39;;;;;;;1999.90;999.90;;;16.00;99.90;;;;;;5066203;28;20932;-71
2023/10/23 11:27:07;;;;;;;1999.90;999.90;;;16.00;99.90;;;;;;5064360;28;20819;-71
2023/10/23 11:29:41;;;;;;;1999.90;999.90;;;16.30;99.90;;;;;;5071863;28;20416;-71
2023/10/23 11:32:08;;;;;;;1999.90;999.90;;;16.30;99.90;;;;;;5071761;28;20419;-71
2023/10/23 11:34:38;;;;;;;1999.90;999.90;;;16.40;99.90;;;;;;5075548;28;20915;-71
2023/10/23 11:37:06;;;;;;;1999.90;999.90;;;16.30;99.90;;;;;;5070157;28;20430;-70
2023/10/23 11:39:33;;;;;;;1999.90;999.90;;;16.30;99.90;;;;;;5076237;28;20431;-72
2023/10/23 11:42:01;;;;;;;1999.90;999.90;;;16.20;99.90;;;;;;5062500;28;20777;-71
2023/10/23 11:44:31;;;;;;;1999.90;999.90;;;16.00;99.90;;;;;;5063990;28;20435;-71
2023/10/23 11:46:59;;;;;;;1999.90;999.90;;;16.20;99.90;;;;;;5066811;28;20826;-71
2023/10/23 11:49:26;;;;;;;1999.90;999.90;;;16.40;99.90;;;;;;5062074;28;20944;-71
2023/10/23 11:51:56;;;;;;;1999.90;999.90;;;16.40;99.90;;;;;;5062486;28;20923;-71
2023/10/23 11:54:25;;;;;;;1999.90;999.90;;;16.30;99.90;;;;;;5061972;28;20458;-71
2023/10/23 11:56:55;;;;;;;1999.90;999.90;;;16.50;99.90;;;;;;5061510;28;20433;-72
2023/10/23 11:59:23;;;;;;;1999.90;999.90;;;16.70;99.90;;;;;;5066683;28;20434;-71
2023/10/23 12:01:50;;;;;;;1999.90;999.90;;;16.80;99.90;;;;;;5080739;28;20431;-71